sensor_id;sensor_type;location;lat;lon;timestamp;P1;durP1;ratioP1;P2;durP2;ratioP2
23390;SDS011;11868;45.606;5.302;2023-01-26T00:01:26;35.78;;;22.30;;
23390;SDS011;11868;45.606;5.302;2023-01-26T00:03:53;36.88;;;22.50;;
23390;SDS011;11868;45.606;5.302;2023-01-26T00:06:19;35.28;;;22.05;;
23390;SDS011;11868;45.606;5.302;2023-01-26T00:08:49;35.10;;;21.92;;
23390;SDS011;11868;45.606;5.302;2023-01-26T00:11:17;34.03;;;21.85;;
23390;SDS011;11868;45.606;5.302;2023-01-26T00:13:43;34.65;;;21.52;;
23390;SDS011;11868;45.606;5.302;2023-01-26T00:16:10;33.50;;;21.77;;
23390;SDS011;11868;45.606;5.302;2023-01-26T00:18:37;33.58;;;22.02;;
23390;SDS011;11868;45.606;5.302;2023-01-26T00:21:03;36.47;;;22.90;;
23390;SDS011;11868;45.606;5.302;2023-01-26T00:23:29;34.70;;;22.90;;
23390;SDS011;11868;45.606;5.302;2023-01-26T00:25:55;37.10;;;23.15;;
23390;SDS011;11868;45.606;5.302;2023-01-26T00:28:20;38.28;;;23.40;;
23390;SDS011;11868;45.606;5.302;2023-01-26T00:30:46;37.28;;;23.58;;
23390;SDS011;11868;45.606;5.302;2023-01-26T00:33:11;36.58;;;23.55;;
23390;SDS011;11868;45.606;5.302;2023-01-26T00:35:37;40.75;;;25.10;;
23390;SDS011;11868;45.606;5.302;2023-01-26T00:38:03;40.35;;;25.50;;
23390;SDS011;11868;45.606;5.302;2023-01-26T00:40:29;38.13;;;24.05;;
23390;SDS011;11868;45.606;5.302;2023-01-26T00:42:54;36.83;;;25.40;;
23390;SDS011;11868;45.606;5.302;2023-01-26T00:45:20;40.17;;;25.30;;
23390;SDS011;11868;45.606;5.302;2023-01-26T00:47:46;42.92;;;26.27;;
23390;SDS011;11868;45.606;5.302;2023-01-26T00:50:11;38.88;;;25.08;;
23390;SDS011;11868;45.606;5.302;2023-01-26T00:52:37;38.28;;;24.38;;
23390;SDS011;11868;45.606;5.302;2023-01-26T00:55:02;38.63;;;24.67;;
23390;SDS011;11868;45.606;5.302;2023-01-26T00:57:28;37.00;;;23.77;;
23390;SDS011;11868;45.606;5.302;2023-01-26T00:59:54;37.22;;;23.67;;
23390;SDS011;11868;45.606;5.302;2023-01-26T01:02:19;36.38;;;23.50;;
23390;SDS011;11868;45.606;5.302;2023-01-26T01:04:45;36.90;;;22.90;;
23390;SDS011;11868;45.606;5.302;2023-01-26T01:07:10;37.67;;;22.45;;
23390;SDS011;11868;45.606;5.302;2023-01-26T01:09:35;38.33;;;22.52;;
23390;SDS011;11868;45.606;5.302;2023-01-26T01:12:01;35.63;;;22.45;;
23390;SDS011;11868;45.606;5.302;2023-01-26T01:14:26;32.88;;;22.00;;
23390;SDS011;11868;45.606;5.302;2023-01-26T01:16:52;34.33;;;22.27;;
23390;SDS011;11868;45.606;5.302;2023-01-26T01:19:17;35.05;;;21.70;;
23390;SDS011;11868;45.606;5.302;2023-01-26T01:21:43;35.78;;;21.33;;
23390;SDS011;11868;45.606;5.302;2023-01-26T01:24:09;36.30;;;23.05;;
23390;SDS011;11868;45.606;5.302;2023-01-26T01:26:35;41.67;;;24.85;;
23390;SDS011;11868;45.606;5.302;2023-01-26T01:29:01;36.80;;;23.73;;
23390;SDS011;11868;45.606;5.302;2023-01-26T01:31:26;38.97;;;24.17;;
23390;SDS011;11868;45.606;5.302;2023-01-26T01:33:53;39.17;;;24.50;;
23390;SDS011;11868;45.606;5.302;2023-01-26T01:36:19;40.10;;;25.73;;
23390;SDS011;11868;45.606;5.302;2023-01-26T01:38:45;43.20;;;26.40;;
23390;SDS011;11868;45.606;5.302;2023-01-26T01:41:15;40.20;;;26.10;;
23390;SDS011;11868;45.606;5.302;2023-01-26T01:43:41;42.38;;;26.33;;
23390;SDS011;11868;45.606;5.302;2023-01-26T01:49:05;39.22;;;25.35;;
23390;SDS011;11868;45.606;5.302;2023-01-26T01:54:24;37.30;;;22.08;;
23390;SDS011;11868;45.606;5.302;2023-01-26T01:56:53;37.85;;;23.05;;
23390;SDS011;11868;45.606;5.302;2023-01-26T01:59:20;38.03;;;23.55;;
23390;SDS011;11868;45.606;5.302;2023-01-26T02:01:46;42.58;;;25.35;;
23390;SDS011;11868;45.606;5.302;2023-01-26T02:04:12;40.83;;;25.65;;
23390;SDS011;11868;45.606;5.302;2023-01-26T02:06:46;38.97;;;25.23;;
23390;SDS011;11868;45.606;5.302;2023-01-26T02:09:14;37.75;;;24.60;;
23390;SDS011;11868;45.606;5.302;2023-01-26T02:11:59;35.38;;;22.85;;
23390;SDS011;11868;45.606;5.302;2023-01-26T02:14:26;38.83;;;24.48;;
23390;SDS011;11868;45.606;5.302;2023-01-26T02:16:53;38.90;;;23.80;;
23390;SDS011;11868;45.606;5.302;2023-01-26T02:19:21;36.75;;;23.50;;
23390;SDS011;11868;45.606;5.302;2023-01-26T02:21:51;38.83;;;24.35;;
23390;SDS011;11868;45.606;5.302;2023-01-26T02:24:24;43.47;;;24.75;;
23390;SDS011;11868;45.606;5.302;2023-01-26T02:26:51;39.20;;;24.85;;
23390;SDS011;11868;45.606;5.302;2023-01-26T02:29:18;42.13;;;25.27;;
23390;SDS011;11868;45.606;5.302;2023-01-26T02:31:44;41.70;;;26.25;;
23390;SDS011;11868;45.606;5.302;2023-01-26T02:34:10;38.88;;;23.95;;
23390;SDS011;11868;45.606;5.302;2023-01-26T02:36:35;39.90;;;24.63;;
23390;SDS011;11868;45.606;5.302;2023-01-26T02:39:15;40.13;;;24.80;;
23390;SDS011;11868;45.606;5.302;2023-01-26T02:41:43;40.20;;;25.88;;
23390;SDS011;11868;45.606;5.302;2023-01-26T02:44:28;43.20;;;25.02;;
23390;SDS011;11868;45.606;5.302;2023-01-26T02:46:53;39.42;;;25.27;;
23390;SDS011;11868;45.606;5.302;2023-01-26T02:49:19;40.50;;;25.30;;
23390;SDS011;11868;45.606;5.302;2023-01-26T02:52:03;45.03;;;26.67;;
23390;SDS011;11868;45.606;5.302;2023-01-26T02:54:29;46.38;;;27.50;;
23390;SDS011;11868;45.606;5.302;2023-01-26T02:57:13;47.15;;;28.25;;
23390;SDS011;11868;45.606;5.302;2023-01-26T02:59:38;49.15;;;28.95;;
23390;SDS011;11868;45.606;5.302;2023-01-26T03:02:04;45.90;;;28.13;;
23390;SDS011;11868;45.606;5.302;2023-01-26T03:04:29;46.55;;;27.50;;
23390;SDS011;11868;45.606;5.302;2023-01-26T03:06:55;44.85;;;27.17;;
23390;SDS011;11868;45.606;5.302;2023-01-26T03:09:20;44.35;;;27.83;;
23390;SDS011;11868;45.606;5.302;2023-01-26T03:11:46;51.58;;;28.40;;
23390;SDS011;11868;45.606;5.302;2023-01-26T03:14:12;47.63;;;28.23;;
23390;SDS011;11868;45.606;5.302;2023-01-26T03:16:39;46.90;;;28.38;;
23390;SDS011;11868;45.606;5.302;2023-01-26T03:19:05;45.60;;;26.60;;
23390;SDS011;11868;45.606;5.302;2023-01-26T03:24:18;45.35;;;27.33;;
23390;SDS011;11868;45.606;5.302;2023-01-26T03:27:02;45.80;;;27.83;;
23390;SDS011;11868;45.606;5.302;2023-01-26T03:29:46;48.65;;;28.42;;
23390;SDS011;11868;45.606;5.302;2023-01-26T03:32:12;47.08;;;27.67;;
23390;SDS011;11868;45.606;5.302;2023-01-26T03:34:37;44.10;;;27.20;;
23390;SDS011;11868;45.606;5.302;2023-01-26T03:37:03;45.88;;;27.83;;
23390;SDS011;11868;45.606;5.302;2023-01-26T03:39:29;48.13;;;27.60;;
23390;SDS011;11868;45.606;5.302;2023-01-26T03:42:13;51.03;;;29.05;;
23390;SDS011;11868;45.606;5.302;2023-01-26T03:44:57;48.65;;;28.70;;
23390;SDS011;11868;45.606;5.302;2023-01-26T03:47:41;50.35;;;29.42;;
23390;SDS011;11868;45.606;5.302;2023-01-26T03:50:25;49.17;;;29.90;;
23390;SDS011;11868;45.606;5.302;2023-01-26T03:53:17;52.85;;;30.10;;
23390;SDS011;11868;45.606;5.302;2023-01-26T03:56:05;52.33;;;29.23;;
23390;SDS011;11868;45.606;5.302;2023-01-26T03:58:51;56.92;;;30.33;;
23390;SDS011;11868;45.606;5.302;2023-01-26T04:01:18;51.05;;;30.58;;
23390;SDS011;11868;45.606;5.302;2023-01-26T04:03:47;50.38;;;29.58;;
23390;SDS011;11868;45.606;5.302;2023-01-26T04:06:31;52.50;;;31.00;;
23390;SDS011;11868;45.606;5.302;2023-01-26T04:09:16;49.38;;;29.35;;
23390;SDS011;11868;45.606;5.302;2023-01-26T04:11:41;50.20;;;29.58;;
23390;SDS011;11868;45.606;5.302;2023-01-26T04:14:09;54.97;;;30.35;;
23390;SDS011;11868;45.606;5.302;2023-01-26T04:16:55;51.90;;;30.70;;
23390;SDS011;11868;45.606;5.302;2023-01-26T04:19:39;53.15;;;29.95;;
23390;SDS011;11868;45.606;5.302;2023-01-26T04:22:23;56.90;;;31.10;;
23390;SDS011;11868;45.606;5.302;2023-01-26T04:24:49;50.58;;;29.35;;
23390;SDS011;11868;45.606;5.302;2023-01-26T04:27:14;51.80;;;29.77;;
23390;SDS011;11868;45.606;5.302;2023-01-26T04:29:39;48.70;;;27.70;;
23390;SDS011;11868;45.606;5.302;2023-01-26T04:32:05;52.42;;;29.58;;
23390;SDS011;11868;45.606;5.302;2023-01-26T04:34:30;53.55;;;29.15;;
23390;SDS011;11868;45.606;5.302;2023-01-26T04:36:55;52.50;;;29.40;;
23390;SDS011;11868;45.606;5.302;2023-01-26T04:39:21;54.78;;;29.30;;
23390;SDS011;11868;45.606;5.302;2023-01-26T04:41:46;59.00;;;30.20;;
23390;SDS011;11868;45.606;5.302;2023-01-26T04:44:11;59.53;;;30.45;;
23390;SDS011;11868;45.606;5.302;2023-01-26T04:46:37;55.92;;;29.35;;
23390;SDS011;11868;45.606;5.302;2023-01-26T04:49:02;52.58;;;29.25;;
23390;SDS011;11868;45.606;5.302;2023-01-26T04:51:28;50.20;;;29.27;;
23390;SDS011;11868;45.606;5.302;2023-01-26T04:53:53;52.67;;;28.75;;
23390;SDS011;11868;45.606;5.302;2023-01-26T04:56:26;49.72;;;27.92;;
23390;SDS011;11868;45.606;5.302;2023-01-26T04:58:53;52.70;;;29.90;;
23390;SDS011;11868;45.606;5.302;2023-01-26T05:01:19;53.72;;;28.58;;
23390;SDS011;11868;45.606;5.302;2023-01-26T05:03:45;54.13;;;28.63;;
23390;SDS011;11868;45.606;5.302;2023-01-26T05:06:11;48.30;;;26.63;;
23390;SDS011;11868;45.606;5.302;2023-01-26T05:08:36;54.63;;;28.05;;
23390;SDS011;11868;45.606;5.302;2023-01-26T05:11:02;51.35;;;28.00;;
23390;SDS011;11868;45.606;5.302;2023-01-26T05:13:28;51.53;;;27.63;;
23390;SDS011;11868;45.606;5.302;2023-01-26T05:15:53;48.95;;;28.00;;
23390;SDS011;11868;45.606;5.302;2023-01-26T05:18:18;50.30;;;26.90;;
23390;SDS011;11868;45.606;5.302;2023-01-26T05:20:44;51.53;;;27.08;;
23390;SDS011;11868;45.606;5.302;2023-01-26T05:23:09;52.50;;;29.17;;
23390;SDS011;11868;45.606;5.302;2023-01-26T05:25:34;51.60;;;26.73;;
23390;SDS011;11868;45.606;5.302;2023-01-26T05:28:00;52.38;;;27.40;;
23390;SDS011;11868;45.606;5.302;2023-01-26T05:30:25;52.72;;;27.85;;
23390;SDS011;11868;45.606;5.302;2023-01-26T05:32:51;51.95;;;27.45;;
23390;SDS011;11868;45.606;5.302;2023-01-26T05:35:16;56.58;;;29.52;;
23390;SDS011;11868;45.606;5.302;2023-01-26T05:37:41;51.85;;;26.92;;
23390;SDS011;11868;45.606;5.302;2023-01-26T05:40:09;50.38;;;27.27;;
23390;SDS011;11868;45.606;5.302;2023-01-26T05:42:36;55.13;;;27.33;;
23390;SDS011;11868;45.606;5.302;2023-01-26T05:45:01;53.70;;;27.73;;
23390;SDS011;11868;45.606;5.302;2023-01-26T05:47:26;54.25;;;28.35;;
23390;SDS011;11868;45.606;5.302;2023-01-26T05:49:52;49.95;;;26.08;;
23390;SDS011;11868;45.606;5.302;2023-01-26T05:52:18;54.95;;;28.10;;
23390;SDS011;11868;45.606;5.302;2023-01-26T05:54:44;51.08;;;28.52;;
23390;SDS011;11868;45.606;5.302;2023-01-26T05:57:09;51.22;;;26.55;;
23390;SDS011;11868;45.606;5.302;2023-01-26T05:59:35;55.92;;;28.52;;
23390;SDS011;11868;45.606;5.302;2023-01-26T06:02:01;55.05;;;28.10;;
23390;SDS011;11868;45.606;5.302;2023-01-26T06:04:26;53.80;;;27.70;;
23390;SDS011;11868;45.606;5.302;2023-01-26T06:06:52;54.20;;;27.17;;
23390;SDS011;11868;45.606;5.302;2023-01-26T06:09:18;59.42;;;27.92;;
23390;SDS011;11868;45.606;5.302;2023-01-26T06:11:44;57.13;;;28.50;;
23390;SDS011;11868;45.606;5.302;2023-01-26T06:14:09;55.30;;;29.52;;
23390;SDS011;11868;45.606;5.302;2023-01-26T06:16:35;50.65;;;27.90;;
23390;SDS011;11868;45.606;5.302;2023-01-26T06:19:00;53.33;;;28.48;;
23390;SDS011;11868;45.606;5.302;2023-01-26T06:21:26;53.53;;;28.27;;
23390;SDS011;11868;45.606;5.302;2023-01-26T06:23:51;59.63;;;29.30;;
23390;SDS011;11868;45.606;5.302;2023-01-26T06:26:16;54.45;;;29.65;;
23390;SDS011;11868;45.606;5.302;2023-01-26T06:28:42;56.05;;;28.55;;
23390;SDS011;11868;45.606;5.302;2023-01-26T06:31:07;55.13;;;28.25;;
23390;SDS011;11868;45.606;5.302;2023-01-26T06:33:35;56.85;;;30.38;;
23390;SDS011;11868;45.606;5.302;2023-01-26T06:36:02;60.70;;;30.38;;
23390;SDS011;11868;45.606;5.302;2023-01-26T06:38:28;59.13;;;29.55;;
23390;SDS011;11868;45.606;5.302;2023-01-26T06:40:54;57.58;;;30.02;;
23390;SDS011;11868;45.606;5.302;2023-01-26T06:43:19;57.40;;;29.35;;
23390;SDS011;11868;45.606;5.302;2023-01-26T06:45:45;59.70;;;30.08;;
23390;SDS011;11868;45.606;5.302;2023-01-26T06:48:11;57.30;;;28.75;;
23390;SDS011;11868;45.606;5.302;2023-01-26T06:50:37;53.95;;;29.23;;
23390;SDS011;11868;45.606;5.302;2023-01-26T06:53:03;52.60;;;28.25;;
23390;SDS011;11868;45.606;5.302;2023-01-26T06:55:49;55.75;;;30.02;;
23390;SDS011;11868;45.606;5.302;2023-01-26T06:58:17;60.35;;;29.75;;
23390;SDS011;11868;45.606;5.302;2023-01-26T07:00:42;54.63;;;28.88;;
23390;SDS011;11868;45.606;5.302;2023-01-26T07:03:08;58.78;;;29.70;;
23390;SDS011;11868;45.606;5.302;2023-01-26T07:05:34;60.05;;;28.60;;
23390;SDS011;11868;45.606;5.302;2023-01-26T07:08:00;56.88;;;28.42;;
23390;SDS011;11868;45.606;5.302;2023-01-26T07:10:28;58.25;;;28.42;;
23390;SDS011;11868;45.606;5.302;2023-01-26T07:12:54;54.38;;;27.23;;
23390;SDS011;11868;45.606;5.302;2023-01-26T07:15:19;55.90;;;28.17;;
23390;SDS011;11868;45.606;5.302;2023-01-26T07:17:44;51.25;;;27.20;;
23390;SDS011;11868;45.606;5.302;2023-01-26T07:20:10;59.17;;;29.05;;
23390;SDS011;11868;45.606;5.302;2023-01-26T07:22:35;56.17;;;28.45;;
23390;SDS011;11868;45.606;5.302;2023-01-26T07:25:01;56.13;;;29.17;;
23390;SDS011;11868;45.606;5.302;2023-01-26T07:27:26;55.13;;;28.00;;
23390;SDS011;11868;45.606;5.302;2023-01-26T07:29:51;55.88;;;28.92;;
23390;SDS011;11868;45.606;5.302;2023-01-26T07:32:17;53.58;;;27.60;;
23390;SDS011;11868;45.606;5.302;2023-01-26T07:34:42;55.88;;;28.33;;
23390;SDS011;11868;45.606;5.302;2023-01-26T07:37:08;69.50;;;36.05;;
23390;SDS011;11868;45.606;5.302;2023-01-26T07:39:33;85.97;;;42.15;;
23390;SDS011;11868;45.606;5.302;2023-01-26T07:41:59;82.10;;;38.00;;
23390;SDS011;11868;45.606;5.302;2023-01-26T07:44:24;54.75;;;29.25;;
23390;SDS011;11868;45.606;5.302;2023-01-26T07:46:49;89.57;;;41.83;;
23390;SDS011;11868;45.606;5.302;2023-01-26T07:49:15;104.65;;;47.22;;
23390;SDS011;11868;45.606;5.302;2023-01-26T07:51:40;91.95;;;43.20;;
23390;SDS011;11868;45.606;5.302;2023-01-26T07:54:06;62.58;;;32.58;;
23390;SDS011;11868;45.606;5.302;2023-01-26T07:56:34;83.05;;;39.90;;
23390;SDS011;11868;45.606;5.302;2023-01-26T07:59:00;78.93;;;39.75;;
23390;SDS011;11868;45.606;5.302;2023-01-26T08:01:25;123.90;;;58.08;;
23390;SDS011;11868;45.606;5.302;2023-01-26T08:03:51;74.85;;;35.58;;
23390;SDS011;11868;45.606;5.302;2023-01-26T08:06:17;65.95;;;31.83;;
23390;SDS011;11868;45.606;5.302;2023-01-26T08:08:44;73.15;;;36.97;;
23390;SDS011;11868;45.606;5.302;2023-01-26T08:11:10;70.55;;;38.63;;
23390;SDS011;11868;45.606;5.302;2023-01-26T08:13:36;77.20;;;38.30;;
23390;SDS011;11868;45.606;5.302;2023-01-26T08:16:02;56.78;;;31.13;;
23390;SDS011;11868;45.606;5.302;2023-01-26T08:18:29;55.42;;;28.50;;
23390;SDS011;11868;45.606;5.302;2023-01-26T08:20:55;64.15;;;32.92;;
23390;SDS011;11868;45.606;5.302;2023-01-26T08:23:20;59.90;;;33.50;;
23390;SDS011;11868;45.606;5.302;2023-01-26T08:25:46;57.67;;;32.13;;
23390;SDS011;11868;45.606;5.302;2023-01-26T08:28:12;50.88;;;28.08;;
23390;SDS011;11868;45.606;5.302;2023-01-26T08:30:37;54.60;;;28.70;;
23390;SDS011;11868;45.606;5.302;2023-01-26T08:33:03;53.22;;;28.85;;
23390;SDS011;11868;45.606;5.302;2023-01-26T08:35:29;52.05;;;27.33;;
23390;SDS011;11868;45.606;5.302;2023-01-26T08:37:55;56.58;;;29.10;;
23390;SDS011;11868;45.606;5.302;2023-01-26T08:40:20;49.38;;;27.25;;
23390;SDS011;11868;45.606;5.302;2023-01-26T08:42:46;56.60;;;28.75;;
23390;SDS011;11868;45.606;5.302;2023-01-26T08:45:11;51.67;;;28.13;;
23390;SDS011;11868;45.606;5.302;2023-01-26T08:47:36;49.33;;;27.45;;
23390;SDS011;11868;45.606;5.302;2023-01-26T08:50:02;46.38;;;26.38;;
23390;SDS011;11868;45.606;5.302;2023-01-26T08:52:28;51.25;;;27.83;;
23390;SDS011;11868;45.606;5.302;2023-01-26T08:54:53;53.97;;;27.85;;
23390;SDS011;11868;45.606;5.302;2023-01-26T08:57:18;47.03;;;26.13;;
23390;SDS011;11868;45.606;5.302;2023-01-26T08:59:44;51.38;;;26.95;;
23390;SDS011;11868;45.606;5.302;2023-01-26T09:02:09;50.88;;;25.67;;
23390;SDS011;11868;45.606;5.302;2023-01-26T09:04:35;50.95;;;27.10;;
23390;SDS011;11868;45.606;5.302;2023-01-26T09:07:00;47.25;;;26.50;;
23390;SDS011;11868;45.606;5.302;2023-01-26T09:09:26;51.42;;;27.10;;
23390;SDS011;11868;45.606;5.302;2023-01-26T09:11:54;50.20;;;26.95;;
23390;SDS011;11868;45.606;5.302;2023-01-26T09:14:19;47.08;;;24.77;;
23390;SDS011;11868;45.606;5.302;2023-01-26T09:16:45;49.75;;;27.17;;
23390;SDS011;11868;45.606;5.302;2023-01-26T09:19:10;48.35;;;25.98;;
23390;SDS011;11868;45.606;5.302;2023-01-26T09:21:35;53.20;;;26.55;;
23390;SDS011;11868;45.606;5.302;2023-01-26T09:24:01;49.92;;;26.90;;
23390;SDS011;11868;45.606;5.302;2023-01-26T09:26:27;47.67;;;25.65;;
23390;SDS011;11868;45.606;5.302;2023-01-26T09:28:53;49.60;;;25.60;;
23390;SDS011;11868;45.606;5.302;2023-01-26T09:31:18;46.70;;;25.75;;
23390;SDS011;11868;45.606;5.302;2023-01-26T09:33:44;44.88;;;24.88;;
23390;SDS011;11868;45.606;5.302;2023-01-26T09:36:10;48.50;;;24.55;;
23390;SDS011;11868;45.606;5.302;2023-01-26T09:38:36;46.15;;;25.23;;
23390;SDS011;11868;45.606;5.302;2023-01-26T09:44:07;47.58;;;23.90;;
23390;SDS011;11868;45.606;5.302;2023-01-26T09:47:09;44.60;;;23.75;;
23390;SDS011;11868;45.606;5.302;2023-01-26T09:54:50;60.08;;;36.15;;
23390;SDS011;11868;45.606;5.302;2023-01-26T09:57:34;80.00;;;46.30;;
23390;SDS011;11868;45.606;5.302;2023-01-26T10:05:00;46.30;;;24.55;;
23390;SDS011;11868;45.606;5.302;2023-01-26T10:07:28;53.75;;;29.45;;
23390;SDS011;11868;45.606;5.302;2023-01-26T10:09:54;87.28;;;47.10;;
23390;SDS011;11868;45.606;5.302;2023-01-26T10:12:25;42.33;;;24.13;;
23390;SDS011;11868;45.606;5.302;2023-01-26T10:15:00;41.67;;;22.40;;
23390;SDS011;11868;45.606;5.302;2023-01-26T10:17:30;41.72;;;22.27;;
23390;SDS011;11868;45.606;5.302;2023-01-26T10:25:14;36.88;;;20.35;;
23390;SDS011;11868;45.606;5.302;2023-01-26T10:27:42;36.83;;;21.00;;
23390;SDS011;11868;45.606;5.302;2023-01-26T10:30:16;38.08;;;20.10;;
23390;SDS011;11868;45.606;5.302;2023-01-26T10:32:43;32.00;;;20.02;;
23390;SDS011;11868;45.606;5.302;2023-01-26T10:35:17;38.03;;;21.00;;
23390;SDS011;11868;45.606;5.302;2023-01-26T10:37:44;32.33;;;19.30;;
23390;SDS011;11868;45.606;5.302;2023-01-26T10:40:11;34.05;;;18.75;;
23390;SDS011;11868;45.606;5.302;2023-01-26T10:42:37;36.42;;;18.75;;
23390;SDS011;11868;45.606;5.302;2023-01-26T10:45:05;31.60;;;19.08;;
23390;SDS011;11868;45.606;5.302;2023-01-26T10:50:31;36.63;;;19.35;;
23390;SDS011;11868;45.606;5.302;2023-01-26T10:55:27;36.33;;;19.63;;
23390;SDS011;11868;45.606;5.302;2023-01-26T10:57:53;33.13;;;19.63;;
23390;SDS011;11868;45.606;5.302;2023-01-26T11:00:31;34.03;;;19.48;;
23390;SDS011;11868;45.606;5.302;2023-01-26T11:05:30;33.38;;;18.90;;
23390;SDS011;11868;45.606;5.302;2023-01-26T11:07:56;40.05;;;19.13;;
23390;SDS011;11868;45.606;5.302;2023-01-26T11:10:28;35.13;;;19.33;;
23390;SDS011;11868;45.606;5.302;2023-01-26T11:13:12;33.80;;;19.23;;
23390;SDS011;11868;45.606;5.302;2023-01-26T11:15:47;32.92;;;20.27;;
23390;SDS011;11868;45.606;5.302;2023-01-26T11:18:31;33.05;;;17.52;;
23390;SDS011;11868;45.606;5.302;2023-01-26T11:21:20;33.70;;;19.67;;
23390;SDS011;11868;45.606;5.302;2023-01-26T11:37:41;35.33;;;19.25;;
23390;SDS011;11868;45.606;5.302;2023-01-26T11:43:46;31.48;;;18.80;;
23390;SDS011;11868;45.606;5.302;2023-01-26T11:54:22;30.02;;;18.02;;
23390;SDS011;11868;45.606;5.302;2023-01-26T12:02:39;31.13;;;17.80;;
23390;SDS011;11868;45.606;5.302;2023-01-26T12:05:14;34.58;;;18.45;;
23390;SDS011;11868;45.606;5.302;2023-01-26T12:07:54;28.92;;;17.55;;
23390;SDS011;11868;45.606;5.302;2023-01-26T12:10:40;33.90;;;17.98;;
23390;SDS011;11868;45.606;5.302;2023-01-26T12:13:45;35.03;;;17.60;;
23390;SDS011;11868;45.606;5.302;2023-01-26T12:16:12;32.47;;;17.95;;
23390;SDS011;11868;45.606;5.302;2023-01-26T12:18:44;30.25;;;17.50;;
23390;SDS011;11868;45.606;5.302;2023-01-26T12:21:32;40.20;;;22.60;;
23390;SDS011;11868;45.606;5.302;2023-01-26T12:24:01;48.22;;;26.50;;
23390;SDS011;11868;45.606;5.302;2023-01-26T12:26:29;34.70;;;20.58;;
23390;SDS011;11868;45.606;5.302;2023-01-26T12:29:10;31.08;;;18.33;;
23390;SDS011;11868;45.606;5.302;2023-01-26T12:31:48;34.05;;;19.25;;
23390;SDS011;11868;45.606;5.302;2023-01-26T12:34:32;38.00;;;19.33;;
23390;SDS011;11868;45.606;5.302;2023-01-26T12:37:02;30.23;;;17.88;;
23390;SDS011;11868;45.606;5.302;2023-01-26T12:42:10;32.40;;;18.33;;
23390;SDS011;11868;45.606;5.302;2023-01-26T12:44:52;35.25;;;19.50;;
23390;SDS011;11868;45.606;5.302;2023-01-26T12:55:45;34.63;;;20.10;;
23390;SDS011;11868;45.606;5.302;2023-01-26T12:58:32;35.45;;;19.17;;
23390;SDS011;11868;45.606;5.302;2023-01-26T13:01:00;37.37;;;19.87;;
23390;SDS011;11868;45.606;5.302;2023-01-26T13:03:28;35.05;;;20.42;;
23390;SDS011;11868;45.606;5.302;2023-01-26T13:05:56;33.08;;;18.20;;
23390;SDS011;11868;45.606;5.302;2023-01-26T13:11:07;32.72;;;17.90;;
23390;SDS011;11868;45.606;5.302;2023-01-26T13:16:30;33.30;;;19.02;;
23390;SDS011;11868;45.606;5.302;2023-01-26T13:18:58;30.13;;;16.77;;
23390;SDS011;11868;45.606;5.302;2023-01-26T13:24:02;32.08;;;17.30;;
23390;SDS011;11868;45.606;5.302;2023-01-26T13:26:41;29.58;;;17.13;;
23390;SDS011;11868;45.606;5.302;2023-01-26T13:32:01;34.83;;;18.30;;
23390;SDS011;11868;45.606;5.302;2023-01-26T13:34:47;30.73;;;17.20;;
23390;SDS011;11868;45.606;5.302;2023-01-26T13:37:21;27.48;;;16.63;;
23390;SDS011;11868;45.606;5.302;2023-01-26T13:39:51;29.38;;;17.00;;
23390;SDS011;11868;45.606;5.302;2023-01-26T13:42:21;27.98;;;16.60;;
23390;SDS011;11868;45.606;5.302;2023-01-26T13:44:58;32.15;;;17.38;;
23390;SDS011;11868;45.606;5.302;2023-01-26T13:47:27;32.30;;;17.20;;
23390;SDS011;11868;45.606;5.302;2023-01-26T13:49:58;32.95;;;16.90;;
23390;SDS011;11868;45.606;5.302;2023-01-26T13:52:24;31.40;;;17.00;;
23390;SDS011;11868;45.606;5.302;2023-01-26T13:54:51;34.10;;;17.20;;
23390;SDS011;11868;45.606;5.302;2023-01-26T13:57:25;31.60;;;16.55;;
23390;SDS011;11868;45.606;5.302;2023-01-26T13:59:54;29.80;;;16.65;;
23390;SDS011;11868;45.606;5.302;2023-01-26T14:02:30;29.77;;;17.30;;
23390;SDS011;11868;45.606;5.302;2023-01-26T14:04:57;30.85;;;17.55;;
23390;SDS011;11868;45.606;5.302;2023-01-26T14:07:27;28.55;;;16.70;;
23390;SDS011;11868;45.606;5.302;2023-01-26T14:09:57;31.90;;;17.38;;
23390;SDS011;11868;45.606;5.302;2023-01-26T14:12:30;29.77;;;17.53;;
23390;SDS011;11868;45.606;5.302;2023-01-26T14:14:59;27.98;;;16.08;;
23390;SDS011;11868;45.606;5.302;2023-01-26T14:17:28;34.93;;;17.73;;
23390;SDS011;11868;45.606;5.302;2023-01-26T14:20:01;29.42;;;15.77;;
23390;SDS011;11868;45.606;5.302;2023-01-26T14:22:31;31.33;;;16.17;;
23390;SDS011;11868;45.606;5.302;2023-01-26T14:24:56;31.77;;;17.30;;
23390;SDS011;11868;45.606;5.302;2023-01-26T14:29:53;30.63;;;17.13;;
23390;SDS011;11868;45.606;5.302;2023-01-26T14:32:19;45.97;;;27.17;;
23390;SDS011;11868;45.606;5.302;2023-01-26T14:34:53;40.50;;;23.02;;
23390;SDS011;11868;45.606;5.302;2023-01-26T14:37:20;32.80;;;18.02;;
23390;SDS011;11868;45.606;5.302;2023-01-26T14:39:46;30.25;;;16.75;;
23390;SDS011;11868;45.606;5.302;2023-01-26T14:42:18;26.83;;;15.43;;
23390;SDS011;11868;45.606;5.302;2023-01-26T14:44:44;30.00;;;16.73;;
23390;SDS011;11868;45.606;5.302;2023-01-26T14:47:17;28.52;;;16.00;;
23390;SDS011;11868;45.606;5.302;2023-01-26T14:49:52;30.33;;;16.67;;
23390;SDS011;11868;45.606;5.302;2023-01-26T14:54:58;27.57;;;15.23;;
23390;SDS011;11868;45.606;5.302;2023-01-26T14:57:30;26.30;;;15.48;;
23390;SDS011;11868;45.606;5.302;2023-01-26T14:59:57;28.08;;;16.25;;
23390;SDS011;11868;45.606;5.302;2023-01-26T15:02:33;25.08;;;14.60;;
23390;SDS011;11868;45.606;5.302;2023-01-26T15:10:03;25.50;;;15.32;;
23390;SDS011;11868;45.606;5.302;2023-01-26T15:15:38;24.13;;;14.30;;
23390;SDS011;11868;45.606;5.302;2023-01-26T15:20:58;26.77;;;15.80;;
23390;SDS011;11868;45.606;5.302;2023-01-26T15:23:48;29.98;;;16.10;;
23390;SDS011;11868;45.606;5.302;2023-01-26T15:26:33;26.55;;;14.40;;
23390;SDS011;11868;45.606;5.302;2023-01-26T15:29:00;28.13;;;15.45;;
23390;SDS011;11868;45.606;5.302;2023-01-26T15:31:29;26.20;;;14.98;;
23390;SDS011;11868;45.606;5.302;2023-01-26T15:33:58;26.63;;;14.75;;
23390;SDS011;11868;45.606;5.302;2023-01-26T15:39:11;25.25;;;15.40;;
23390;SDS011;11868;45.606;5.302;2023-01-26T15:41:42;24.55;;;14.95;;
23390;SDS011;11868;45.606;5.302;2023-01-26T15:44:10;25.27;;;13.52;;
23390;SDS011;11868;45.606;5.302;2023-01-26T15:46:38;23.30;;;14.15;;
23390;SDS011;11868;45.606;5.302;2023-01-26T15:49:04;24.92;;;13.75;;
23390;SDS011;11868;45.606;5.302;2023-01-26T15:51:29;25.92;;;15.50;;
23390;SDS011;11868;45.606;5.302;2023-01-26T15:53:55;30.10;;;14.82;;
23390;SDS011;11868;45.606;5.302;2023-01-26T15:56:20;25.27;;;14.10;;
23390;SDS011;11868;45.606;5.302;2023-01-26T15:58:45;23.77;;;13.55;;
23390;SDS011;11868;45.606;5.302;2023-01-26T16:01:16;24.05;;;14.23;;
23390;SDS011;11868;45.606;5.302;2023-01-26T16:03:45;23.25;;;13.43;;
23390;SDS011;11868;45.606;5.302;2023-01-26T16:06:29;23.08;;;13.95;;
23390;SDS011;11868;45.606;5.302;2023-01-26T16:08:55;25.52;;;13.70;;
23390;SDS011;11868;45.606;5.302;2023-01-26T16:11:23;23.92;;;13.30;;
23390;SDS011;11868;45.606;5.302;2023-01-26T16:13:50;26.42;;;14.02;;
23390;SDS011;11868;45.606;5.302;2023-01-26T16:16:16;25.08;;;14.40;;
23390;SDS011;11868;45.606;5.302;2023-01-26T16:18:42;24.98;;;13.77;;